< < Back
Terminal Aerodrome Forecast


Current Version              Previous Versions:   1  2  3  4  5  6  7  8  9  

Terminal Aerodrome Forecast

749
FTUS42 KILM 252100 AAA
TAFFLO
TAF AMD
KFLO 252129Z 2521/2618 32004KT P6SM -RA SCT005 OVC100
     FM260000 02004KT 5SM -RA BKN007
     FM260300 01009KT 2SM RA BR BKN004
     FM261400 34014G20KT 6SM -RA BR BKN012=



Latest METAR

154
SAUS70 KWBC 261100 RRC
MTRFLO
METAR KFLO 261053Z AUTO 32012KT 4SM RA BR OVC007 11/09 A2984 RMK AO2 CIG
005V012 SLP103 P0010 T01060094


USA.gov is the U.S. government's official web portal to all federal, state and local government web resources and services.